Time;durP1;ratioP1;P1;durP2;ratioP2;P2;SDS_P1;SDS_P2;PMS_P1;PMS_P2;Temp;Humidity;BMP_temperature;BMP_pressure;BME280_temperature;BME280_humidity;BME280_pressure;Samples;Min_cycle;Max_cycle;Signal;HPM_P1;HPM_P2
2021/11/26 00:00:13;;;;;;;35.13;19.40;;;5.50;99.90;;;;;;5068650;28;20580;-80
2021/11/26 00:02:43;;;;;;;41.10;20.93;;;5.50;99.90;;;;;;5073274;28;20476;-82
2021/11/26 00:05:11;;;;;;;40.93;19.90;;;5.50;99.90;;;;;;5072722;28;20456;-81
2021/11/26 00:07:38;;;;;;;34.30;17.63;;;5.70;99.90;;;;;;5071647;28;20448;-81
2021/11/26 00:10:09;;;;;;;37.40;19.90;;;5.60;99.90;;;;;;5069111;28;21106;-81
2021/11/26 00:12:36;;;;;;;37.30;18.40;;;5.50;99.90;;;;;;5070543;28;20567;-81
2021/11/26 00:15:19;;;;;;;38.30;19.20;;;5.50;99.90;;;;;;5072277;28;20818;-80
2021/11/26 00:17:50;;;;;;;39.23;18.20;;;5.60;99.90;;;;;;5071383;28;20449;-82
2021/11/26 00:20:21;;;;;;;44.30;19.63;;;5.70;99.90;;;;;;5069921;28;20492;-82
2021/11/26 00:22:47;;;;;;;33.13;18.13;;;5.70;99.90;;;;;;5074991;28;20501;-82
2021/11/26 00:25:15;;;;;;;36.23;17.77;;;5.60;99.90;;;;;;5075574;28;20460;-82
2021/11/26 00:27:42;;;;;;;40.63;18.97;;;5.60;99.90;;;;;;5074128;28;20449;-80
2021/11/26 00:30:10;;;;;;;41.33;20.20;;;5.60;99.90;;;;;;5074110;28;20944;-81
2021/11/26 00:32:37;;;;;;;40.13;18.13;;;5.60;99.90;;;;;;5074086;28;20480;-82
2021/11/26 00:35:05;;;;;;;42.30;20.33;;;5.60;99.90;;;;;;5074612;28;20455;-82
2021/11/26 00:37:34;;;;;;;38.03;18.67;;;5.60;99.90;;;;;;5075098;28;20967;-82
2021/11/26 00:40:01;;;;;;;50.87;22.13;;;5.70;99.90;;;;;;5072257;28;20462;-81
2021/11/26 00:42:27;;;;;;;32.27;16.90;;;5.50;99.90;;;;;;5079899;28;20476;-82
2021/11/26 00:44:54;;;;;;;36.53;19.13;;;5.50;99.90;;;;;;5096019;28;20985;-82
2021/11/26 00:47:22;;;;;;;46.53;20.77;;;5.60;99.90;;;;;;5091880;28;20519;-82
2021/11/26 00:49:50;;;;;;;43.03;20.50;;;5.50;99.90;;;;;;5097175;28;20462;-82
2021/11/26 00:52:17;;;;;;;33.10;16.40;;;5.50;99.90;;;;;;5093515;28;20505;-82
2021/11/26 00:54:46;;;;;;;42.80;18.73;;;5.50;99.90;;;;;;5097363;28;20453;-82
2021/11/26 00:57:12;;;;;;;41.80;19.73;;;5.60;99.90;;;;;;5108881;28;20480;-80
2021/11/26 00:59:40;;;;;;;43.00;19.27;;;5.60;99.90;;;;;;5107994;28;20489;-82
2021/11/26 01:02:08;;;;;;;38.17;20.90;;;5.60;99.90;;;;;;5095956;28;20490;-82
2021/11/26 01:04:35;;;;;;;31.53;18.43;;;5.70;99.90;;;;;;5087419;28;20448;-82
2021/11/26 01:07:02;;;;;;;45.00;21.13;;;5.60;99.90;;;;;;5093426;28;20455;-82
2021/11/26 01:09:29;;;;;;;46.97;20.27;;;5.70;99.90;;;;;;5097408;28;20956;-81
2021/11/26 01:11:57;;;;;;;39.40;20.17;;;5.60;99.90;;;;;;5095439;28;20462;-81
2021/11/26 01:14:24;;;;;;;45.27;20.30;;;5.60;99.90;;;;;;5096117;28;20449;-81
2021/11/26 01:16:51;;;;;;;39.40;19.53;;;5.50;99.90;;;;;;5095243;28;20451;-82
2021/11/26 01:19:18;;;;;;;40.53;22.47;;;5.50;99.90;;;;;;5095549;28;20450;-82
2021/11/26 01:21:45;;;;;;;34.80;19.83;;;5.50;99.90;;;;;;5094038;28;20495;-82
2021/11/26 01:24:12;;;;;;;43.67;20.00;;;5.50;99.90;;;;;;5093633;28;20451;-81
2021/11/26 01:26:39;;;;;;;40.27;19.33;;;5.50;99.90;;;;;;5089013;28;20450;-81
2021/11/26 01:29:07;;;;;;;48.53;21.17;;;5.50;99.90;;;;;;5090529;28;20460;-81
2021/11/26 01:31:36;;;;;;;41.83;20.37;;;5.50;99.90;;;;;;5090805;28;20814;-83
2021/11/26 01:34:04;;;;;;;42.17;21.47;;;5.40;99.90;;;;;;5094846;28;20919;-82
2021/11/26 01:36:32;;;;;;;40.97;19.40;;;5.40;99.90;;;;;;5095692;28;20952;-83
2021/11/26 01:38:59;;;;;;;43.73;18.70;;;5.30;99.90;;;;;;5095039;28;20519;-82
2021/11/26 01:41:26;;;;;;;43.47;19.70;;;5.30;99.90;;;;;;5094493;28;20488;-83
2021/11/26 01:43:53;;;;;;;42.00;19.67;;;5.20;99.90;;;;;;5091379;28;20449;-81
2021/11/26 01:46:22;;;;;;;40.40;20.00;;;5.20;99.90;;;;;;5094250;28;20487;-82
2021/11/26 01:48:49;;;;;;;38.87;21.17;;;5.30;99.90;;;;;;5093766;28;21062;-81
2021/11/26 01:51:16;;;;;;;35.97;18.10;;;5.40;99.90;;;;;;5094103;28;20471;-81
2021/11/26 01:53:43;;;;;;;32.93;17.43;;;5.50;99.90;;;;;;5093870;28;20952;-80
2021/11/26 01:56:10;;;;;;;35.80;17.10;;;5.50;99.90;;;;;;5093682;28;20459;-81
2021/11/26 01:58:38;;;;;;;33.63;16.30;;;5.60;99.90;;;;;;5093500;28;20476;-80
2021/11/26 02:01:05;;;;;;;41.40;21.60;;;5.60;99.90;;;;;;5093174;28;20488;-80
2021/11/26 02:03:33;;;;;;;38.47;17.50;;;5.70;99.90;;;;;;5093360;28;20457;-80
2021/11/26 02:06:00;;;;;;;34.57;15.40;;;5.60;99.90;;;;;;5089027;28;20456;-79
2021/11/26 02:08:27;;;;;;;29.20;16.37;;;5.70;99.90;;;;;;5091275;28;20482;-80
2021/11/26 02:10:54;;;;;;;39.33;18.00;;;5.70;99.90;;;;;;5091202;28;21010;-80
2021/11/26 02:13:21;;;;;;;36.73;18.00;;;5.70;99.90;;;;;;5093330;28;20459;-81
2021/11/26 02:15:49;;;;;;;35.30;15.37;;;5.70;99.90;;;;;;5092119;28;20443;-81
2021/11/26 02:18:16;;;;;;;32.30;15.93;;;5.70;99.90;;;;;;5092942;28;20456;-81
2021/11/26 02:20:45;;;;;;;33.60;16.60;;;5.70;99.90;;;;;;5089957;28;20489;-79
2021/11/26 02:23:13;;;;;;;31.47;14.83;;;5.70;99.90;;;;;;5093024;28;20463;-81
2021/11/26 02:25:40;;;;;;;32.87;16.10;;;5.70;99.90;;;;;;5095084;28;20962;-80
2021/11/26 02:28:09;;;;;;;31.40;15.17;;;5.70;99.90;;;;;;5093921;28;20459;-81
2021/11/26 02:30:37;;;;;;;27.50;13.97;;;5.80;99.90;;;;;;5093263;28;20831;-80
2021/11/26 02:33:06;;;;;;;29.03;16.37;;;5.80;99.90;;;;;;5093671;28;20457;-81
2021/11/26 02:35:34;;;;;;;40.83;17.47;;;5.80;99.90;;;;;;5094158;28;20929;-83
2021/11/26 02:38:03;;;;;;;34.73;16.87;;;5.80;99.90;;;;;;5093864;28;20456;-81
2021/11/26 02:40:33;;;;;;;34.33;17.63;;;5.80;99.90;;;;;;5092833;28;20456;-83
2021/11/26 02:43:00;;;;;;;35.90;17.00;;;5.80;99.90;;;;;;5099175;28;20451;-82
2021/11/26 02:45:28;;;;;;;30.07;16.37;;;5.70;99.90;;;;;;5104042;28;20436;-80
2021/11/26 02:47:55;;;;;;;36.43;18.20;;;5.70;99.90;;;;;;5092101;28;20975;-80
2021/11/26 02:50:25;;;;;;;31.03;15.97;;;5.70;99.90;;;;;;5092087;28;20814;-80
2021/11/26 02:52:52;;;;;;;31.67;18.20;;;5.80;99.90;;;;;;5092736;28;20845;-78
2021/11/26 02:55:23;;;;;;;41.77;20.57;;;5.80;99.90;;;;;;5093076;28;20439;-81
2021/11/26 02:57:51;;;;;;;36.93;18.63;;;5.80;99.90;;;;;;5092684;28;20452;-80
2021/11/26 03:00:21;;;;;;;39.17;18.27;;;5.80;99.90;;;;;;5091816;28;20462;-81
2021/11/26 03:02:48;;;;;;;50.43;21.50;;;5.80;99.90;;;;;;5092593;28;20487;-79
2021/11/26 03:05:16;;;;;;;40.63;19.13;;;5.80;99.90;;;;;;5092220;28;20475;-81
2021/11/26 03:07:43;;;;;;;43.20;20.23;;;5.80;99.90;;;;;;5092827;28;20455;-83
2021/11/26 03:10:13;;;;;;;38.67;18.93;;;5.90;99.90;;;;;;5091430;28;20844;-83
2021/11/26 03:12:41;;;;;;;41.83;20.30;;;5.80;99.90;;;;;;5090383;28;20495;-82
2021/11/26 03:15:08;;;;;;;40.23;21.43;;;5.80;99.90;;;;;;5092239;28;20447;-81
2021/11/26 03:17:35;;;;;;;45.30;21.97;;;5.70;99.90;;;;;;5092351;28;20604;-82
2021/11/26 03:20:02;;;;;;;43.97;20.37;;;5.70;99.90;;;;;;5092071;28;20463;-83
2021/11/26 03:22:29;;;;;;;48.93;22.60;;;5.60;99.90;;;;;;5072057;28;20485;-81
2021/11/26 03:24:56;;;;;;;49.70;22.50;;;5.70;99.90;;;;;;5080993;28;20452;-83
2021/11/26 03:27:22;;;;;;;51.50;23.33;;;5.70;99.90;;;;;;5093073;28;20452;-81
2021/11/26 03:29:50;;;;;;;38.63;21.33;;;5.60;99.90;;;;;;5100522;28;20527;-81
2021/11/26 03:32:17;;;;;;;38.83;19.80;;;5.60;99.90;;;;;;5093705;28;20887;-83
2021/11/26 03:34:44;;;;;;;41.70;21.50;;;5.60;99.90;;;;;;5094656;28;20446;-82
2021/11/26 03:37:11;;;;;;;43.70;21.20;;;5.70;99.90;;;;;;5096317;28;20938;-82
2021/11/26 03:39:38;;;;;;;33.20;19.20;;;5.70;99.90;;;;;;5095446;28;20519;-82
2021/11/26 03:42:05;;;;;;;50.90;22.17;;;5.70;99.90;;;;;;5094315;28;20846;-82
2021/11/26 03:44:32;;;;;;;37.20;19.47;;;5.70;99.90;;;;;;5094948;28;20449;-81
2021/11/26 03:47:00;;;;;;;41.50;23.60;;;5.80;99.90;;;;;;5090096;28;20468;-83
2021/11/26 03:49:27;;;;;;;42.10;22.50;;;5.80;99.90;;;;;;5093737;28;20484;-82
2021/11/26 03:51:54;;;;;;;56.03;23.80;;;5.70;99.90;;;;;;5091758;28;20469;-82
2021/11/26 03:54:21;;;;;;;36.07;19.00;;;5.70;99.90;;;;;;5097107;28;20456;-82
2021/11/26 03:56:47;;;;;;;41.50;21.20;;;5.70;99.90;;;;;;5097128;28;20842;-82
2021/11/26 03:59:14;;;;;;;41.57;23.47;;;5.70;99.90;;;;;;5096860;28;20461;-82
2021/11/26 04:01:41;;;;;;;48.80;22.30;;;5.70;99.90;;;;;;5096314;28;20480;-81
2021/11/26 04:04:09;;;;;;;55.50;24.23;;;5.70;99.90;;;;;;5097959;28;20451;-82
2021/11/26 04:06:36;;;;;;;45.13;23.07;;;5.70;99.90;;;;;;5097749;28;20451;-80
2021/11/26 04:09:03;;;;;;;40.83;21.77;;;5.60;99.90;;;;;;5097483;28;20459;-82
2021/11/26 04:11:31;;;;;;;54.97;25.43;;;5.70;99.90;;;;;;5096215;28;20554;-83
2021/11/26 04:13:58;;;;;;;46.87;24.23;;;5.70;99.90;;;;;;5098681;28;20451;-83
2021/11/26 04:16:25;;;;;;;42.07;23.30;;;5.60;99.90;;;;;;5103028;28;20451;-83
2021/11/26 04:18:52;;;;;;;37.73;22.13;;;5.50;99.90;;;;;;5100778;28;20455;-83
2021/11/26 04:21:20;;;;;;;40.10;22.80;;;5.50;99.90;;;;;;5095432;28;20543;-83
2021/11/26 04:23:47;;;;;;;41.73;21.23;;;5.50;99.90;;;;;;5095014;28;20464;-82
2021/11/26 04:26:14;;;;;;;42.93;21.73;;;5.60;99.90;;;;;;5097242;28;20819;-82
2021/11/26 04:28:40;;;;;;;42.60;22.43;;;5.60;99.90;;;;;;5096337;28;20448;-82
2021/11/26 04:31:07;;;;;;;38.47;22.27;;;5.50;99.90;;;;;;5095720;28;20476;-82
2021/11/26 04:33:34;;;;;;;40.67;21.23;;;5.50;99.90;;;;;;5096274;28;20821;-82
2021/11/26 04:36:02;;;;;;;49.20;23.53;;;5.50;99.90;;;;;;5107419;28;20535;-81
2021/11/26 04:38:30;;;;;;;49.67;25.57;;;5.50;99.90;;;;;;5105239;28;20453;-83
2021/11/26 04:40:57;;;;;;;56.30;29.37;;;5.50;99.90;;;;;;5094395;28;20480;-82
2021/11/26 04:43:24;;;;;;;45.77;23.07;;;5.40;99.90;;;;;;5095009;28;20484;-82
2021/11/26 04:45:51;;;;;;;44.10;22.57;;;5.40;99.90;;;;;;5093228;28;21008;-81
2021/11/26 04:48:18;;;;;;;46.63;27.37;;;5.40;99.90;;;;;;5102120;28;20483;-79
2021/11/26 04:50:45;;;;;;;45.87;22.13;;;5.50;99.90;;;;;;5106903;28;20961;-80
2021/11/26 04:53:12;;;;;;;46.80;24.83;;;5.50;99.90;;;;;;5109551;28;20453;-80
2021/11/26 04:55:40;;;;;;;40.10;23.83;;;5.40;99.90;;;;;;5110119;28;20457;-80
2021/11/26 04:58:07;;;;;;;50.87;27.60;;;5.50;99.90;;;;;;5110829;28;20444;-80
2021/11/26 05:00:34;;;;;;;47.20;26.20;;;5.40;99.90;;;;;;5094367;28;20535;-79
2021/11/26 05:03:01;;;;;;;41.17;23.73;;;5.40;99.90;;;;;;5108247;28;20511;-81
2021/11/26 05:05:28;;;;;;;43.87;24.53;;;5.40;99.90;;;;;;5107286;28;20538;-81
2021/11/26 05:07:57;;;;;;;41.23;23.77;;;5.40;99.90;;;;;;5107140;28;20450;-80
2021/11/26 05:10:24;;;;;;;47.00;25.50;;;5.30;99.90;;;;;;5104816;28;20478;-80
2021/11/26 05:12:54;;;;;;;44.03;26.97;;;5.30;99.90;;;;;;5102794;28;20875;-85
2021/11/26 05:15:26;;;;;;;40.13;25.30;;;5.30;99.90;;;;;;5097518;28;20527;-83
2021/11/26 05:17:53;;;;;;;40.87;25.07;;;5.20;99.90;;;;;;5093554;28;20492;-84
2021/11/26 05:20:21;;;;;;;39.10;24.10;;;5.20;99.90;;;;;;5095062;28;20544;-84
2021/11/26 05:22:48;;;;;;;38.10;26.70;;;5.30;99.90;;;;;;5095547;28;21076;-84
2021/11/26 05:25:15;;;;;;;44.77;28.00;;;5.30;99.90;;;;;;5095348;28;20461;-83
2021/11/26 05:27:42;;;;;;;37.37;24.30;;;5.30;99.90;;;;;;5089841;28;20447;-85
2021/11/26 05:30:12;;;;;;;31.53;19.67;;;5.30;99.90;;;;;;5104702;28;20472;-81
2021/11/26 05:32:40;;;;;;;35.57;24.10;;;6.80;99.90;;;;;;5101286;28;20828;-80
2021/11/26 05:35:07;;;;;;;28.30;19.80;;;7.20;99.90;;;;;;5105651;28;20457;-81
2021/11/26 05:37:35;;;;;;;24.30;18.50;;;7.20;99.90;;;;;;5105378;28;20444;-81
2021/11/26 05:40:02;;;;;;;33.80;20.73;;;7.80;99.90;;;;;;5100110;28;20528;-81
2021/11/26 05:42:29;;;;;;;27.67;19.40;;;7.80;99.90;;;;;;5099924;28;20499;-80
2021/11/26 05:44:56;;;;;;;29.57;19.90;;;7.70;99.90;;;;;;5103678;28;20452;-82
2021/11/26 05:47:24;;;;;;;23.90;19.10;;;7.50;99.90;;;;;;5087967;28;20453;-80
2021/11/26 05:49:51;;;;;;;24.00;17.90;;;7.20;99.90;;;;;;5101729;28;20453;-81
2021/11/26 05:52:18;;;;;;;26.43;18.03;;;6.90;99.90;;;;;;5085309;28;20470;-83
2021/11/26 05:54:45;;;;;;;25.83;18.60;;;6.50;99.90;;;;;;5093446;28;20548;-82
2021/11/26 05:57:12;;;;;;;32.30;21.97;;;6.30;99.90;;;;;;5084505;28;20979;-84
2021/11/26 05:59:39;;;;;;;31.33;21.50;;;6.00;99.90;;;;;;5090683;28;20457;-81
2021/11/26 06:02:06;;;;;;;31.50;20.80;;;5.90;99.90;;;;;;5100594;28;20872;-83
2021/11/26 06:04:34;;;;;;;34.30;23.23;;;5.70;99.90;;;;;;5100221;28;20456;-83
2021/11/26 06:07:01;;;;;;;24.87;18.53;;;5.60;99.90;;;;;;5101900;28;20456;-83
2021/11/26 06:09:27;;;;;;;26.10;19.03;;;5.60;99.90;;;;;;5100359;28;20450;-81
2021/11/26 06:11:54;;;;;;;38.80;23.73;;;5.70;99.90;;;;;;5102105;28;20499;-81
2021/11/26 06:14:21;;;;;;;36.63;23.70;;;5.60;99.90;;;;;;5105231;28;20521;-81
2021/11/26 06:16:48;;;;;;;31.63;21.37;;;5.50;99.90;;;;;;5103255;28;20481;-81
2021/11/26 06:19:14;;;;;;;27.77;19.63;;;5.40;99.90;;;;;;5108664;28;20445;-85
2021/11/26 06:21:43;;;;;;;32.10;20.03;;;5.50;99.90;;;;;;5110063;28;20476;-84
2021/11/26 06:24:09;;;;;;;26.77;17.70;;;5.40;99.90;;;;;;5113439;28;20512;-84
2021/11/26 06:26:36;;;;;;;30.87;19.43;;;5.40;99.90;;;;;;5114449;28;20489;-84
2021/11/26 06:29:03;;;;;;;33.73;19.70;;;5.40;99.90;;;;;;5108527;28;20469;-82
2021/11/26 06:31:30;;;;;;;29.23;18.33;;;5.30;99.90;;;;;;5090337;28;20475;-80
2021/11/26 06:33:57;;;;;;;24.27;16.70;;;5.30;99.90;;;;;;5101333;28;20534;-83
2021/11/26 06:36:24;;;;;;;24.60;16.30;;;5.40;99.90;;;;;;5100653;28;20454;-81
2021/11/26 06:38:52;;;;;;;22.30;17.00;;;5.30;99.90;;;;;;5099501;28;20461;-83
2021/11/26 06:41:19;;;;;;;28.80;17.00;;;5.30;99.90;;;;;;5098720;28;20485;-82
2021/11/26 06:43:46;;;;;;;24.50;17.50;;;5.30;99.90;;;;;;5099894;28;20569;-82
2021/11/26 06:46:13;;;;;;;20.33;15.83;;;5.30;99.90;;;;;;5098866;28;20555;-80
2021/11/26 06:48:40;;;;;;;18.60;14.37;;;5.20;99.90;;;;;;5102306;28;20536;-80
2021/11/26 06:51:06;;;;;;;23.83;14.83;;;5.30;99.90;;;;;;5092448;28;20483;-81
2021/11/26 06:53:33;;;;;;;22.20;14.30;;;5.30;99.90;;;;;;5101118;28;20516;-82
2021/11/26 06:56:01;;;;;;;21.80;14.53;;;5.30;99.90;;;;;;5101373;28;20472;-81
2021/11/26 06:58:28;;;;;;;18.37;13.13;;;5.30;99.90;;;;;;5102498;28;20453;-83
2021/11/26 07:00:55;;;;;;;18.57;12.70;;;5.40;99.90;;;;;;5100307;28;20465;-81
2021/11/26 07:03:22;;;;;;;20.07;13.47;;;5.30;99.90;;;;;;5090238;28;20492;-81
2021/11/26 07:05:49;;;;;;;18.87;13.27;;;5.40;99.90;;;;;;5103000;28;20844;-83
2021/11/26 07:08:18;;;;;;;20.53;14.23;;;5.30;99.90;;;;;;5103812;28;20448;-81
2021/11/26 07:10:44;;;;;;;23.40;15.17;;;5.30;99.90;;;;;;5099434;28;20959;-81
2021/11/26 07:13:13;;;;;;;22.17;13.50;;;5.30;99.90;;;;;;5093699;28;20457;-80
2021/11/26 07:15:40;;;;;;;16.03;12.57;;;5.40;99.90;;;;;;5089610;28;20443;-80
2021/11/26 07:18:07;;;;;;;22.27;13.93;;;5.40;99.90;;;;;;5085541;28;20899;-83
2021/11/26 07:20:36;;;;;;;20.80;13.50;;;5.40;99.90;;;;;;5092278;28;20545;-82
2021/11/26 07:23:02;;;;;;;22.03;14.10;;;5.40;99.90;;;;;;5094646;28;20533;-82
2021/11/26 07:25:29;;;;;;;16.80;13.00;;;5.40;99.90;;;;;;5091637;28;20512;-82
2021/11/26 07:27:56;;;;;;;17.67;12.33;;;5.40;99.90;;;;;;5099505;28;20455;-78
2021/11/26 07:30:24;;;;;;;25.30;13.97;;;5.50;99.90;;;;;;5094833;28;20458;-84
2021/11/26 07:32:52;;;;;;;18.03;13.87;;;5.50;99.90;;;;;;5096655;28;20465;-80
2021/11/26 07:35:18;;;;;;;18.90;14.30;;;5.60;99.90;;;;;;5094479;28;20536;-82
2021/11/26 07:37:45;;;;;;;18.80;13.80;;;5.60;99.90;;;;;;5091252;28;22153;-78
2021/11/26 07:40:12;;;;;;;17.37;13.37;;;5.50;99.90;;;;;;5096108;28;20461;-79
2021/11/26 07:42:40;;;;;;;20.10;14.53;;;5.60;99.90;;;;;;5100284;28;20557;-81
2021/11/26 07:45:11;;;;;;;20.10;12.27;;;5.50;99.90;;;;;;5110082;28;20525;-83
2021/11/26 07:47:45;;;;;;;19.40;13.60;;;5.50;99.90;;;;;;5110165;28;20457;-83
2021/11/26 07:50:13;;;;;;;15.73;12.23;;;5.50;99.90;;;;;;5098749;28;20446;-84
2021/11/26 07:52:41;;;;;;;24.87;15.37;;;5.50;99.90;;;;;;5104049;28;20494;-82
2021/11/26 07:55:12;;;;;;;20.07;14.80;;;5.40;99.90;;;;;;5102147;28;20610;-81
2021/11/26 07:57:40;;;;;;;20.20;14.07;;;5.40;99.90;;;;;;5099956;28;20507;-81
2021/11/26 08:00:09;;;;;;;22.57;12.73;;;5.40;99.90;;;;;;5099684;28;20529;-81
2021/11/26 08:02:36;;;;;;;17.10;11.90;;;5.30;99.90;;;;;;5095517;28;20485;-80
2021/11/26 08:05:07;;;;;;;23.93;15.27;;;5.40;99.90;;;;;;5088457;28;20461;-80
2021/11/26 08:07:34;;;;;;;21.33;13.27;;;5.30;99.90;;;;;;5092436;28;20448;-81
2021/11/26 08:10:03;;;;;;;18.47;13.03;;;5.30;99.90;;;;;;5093745;28;20461;-82
2021/11/26 08:12:31;;;;;;;19.70;13.40;;;5.30;99.90;;;;;;5095870;28;20469;-81
2021/11/26 08:14:57;;;;;;;21.87;14.13;;;5.20;99.90;;;;;;5094596;28;20546;-81
2021/11/26 08:17:24;;;;;;;19.83;12.70;;;5.30;99.90;;;;;;5104037;28;20466;-80
2021/11/26 08:19:51;;;;;;;15.13;11.50;;;5.40;99.90;;;;;;5109691;28;20512;-82
2021/11/26 08:22:19;;;;;;;20.33;12.90;;;5.40;99.90;;;;;;5109521;28;20531;-80
2021/11/26 08:24:46;;;;;;;16.77;11.90;;;5.30;99.90;;;;;;5106636;28;20456;-80
2021/11/26 08:27:13;;;;;;;22.97;13.10;;;5.30;99.90;;;;;;5116320;28;20440;-79
2021/11/26 08:29:40;;;;;;;23.60;14.20;;;5.30;99.90;;;;;;5115237;28;20507;-80
2021/11/26 08:32:07;;;;;;;18.80;12.93;;;5.30;99.90;;;;;;5114428;28;20493;-79
2021/11/26 08:34:33;;;;;;;22.17;13.27;;;5.30;99.90;;;;;;5108469;28;20445;-80
2021/11/26 08:37:00;;;;;;;21.27;13.87;;;5.40;99.90;;;;;;5107369;28;20533;-80
2021/11/26 08:39:29;;;;;;;22.20;13.23;;;5.40;99.90;;;;;;5107200;28;20903;-79
2021/11/26 08:41:55;;;;;;;23.77;14.30;;;5.40;99.90;;;;;;5100482;28;20539;-81
2021/11/26 08:44:22;;;;;;;27.07;16.67;;;5.40;99.90;;;;;;5106072;28;20475;-85
2021/11/26 08:46:49;;;;;;;24.23;17.30;;;5.40;99.90;;;;;;5103001;28;20451;-83
2021/11/26 08:49:16;;;;;;;29.13;15.00;;;5.40;99.90;;;;;;5106235;28;20456;-81
2021/11/26 08:51:45;;;;;;;25.97;17.60;;;5.50;99.90;;;;;;5104812;28;20547;-82
2021/11/26 08:54:12;;;;;;;26.47;16.10;;;5.50;99.90;;;;;;5106493;28;20462;-80
2021/11/26 08:56:44;;;;;;;32.53;18.23;;;5.60;99.90;;;;;;5105054;28;20459;-83
2021/11/26 08:59:11;;;;;;;23.17;15.30;;;5.50;99.90;;;;;;5097928;28;20463;-82
2021/11/26 09:01:38;;;;;;;22.63;15.10;;;5.40;99.90;;;;;;5096237;28;20558;-82
2021/11/26 09:04:05;;;;;;;22.70;14.97;;;5.50;99.90;;;;;;5106217;28;20555;-81
2021/11/26 09:06:32;;;;;;;26.40;15.37;;;5.50;99.90;;;;;;5108010;28;20420;-82
2021/11/26 09:08:59;;;;;;;27.50;15.73;;;5.40;99.90;;;;;;5113153;28;20433;-82
2021/11/26 09:11:26;;;;;;;24.13;14.83;;;5.50;99.90;;;;;;5111751;28;20476;-83
2021/11/26 09:13:54;;;;;;;25.40;13.73;;;5.60;99.90;;;;;;5107166;28;20528;-82
2021/11/26 09:16:21;;;;;;;22.40;12.60;;;5.60;99.90;;;;;;5107045;28;20446;-80
2021/11/26 09:18:48;;;;;;;19.90;13.37;;;5.60;99.90;;;;;;5106504;28;20529;-82
2021/11/26 09:21:15;;;;;;;19.50;11.93;;;5.60;99.90;;;;;;5102981;28;20529;-81
2021/11/26 09:23:43;;;;;;;19.77;11.80;;;5.60;99.90;;;;;;5105766;28;20567;-82
2021/11/26 09:26:10;;;;;;;22.33;12.90;;;5.80;99.90;;;;;;5105466;28;20516;-81
2021/11/26 09:28:37;;;;;;;21.33;13.30;;;5.80;99.90;;;;;;5103728;28;20632;-81
2021/11/26 09:31:06;;;;;;;18.07;11.23;;;5.80;99.90;;;;;;5102574;28;20466;-81
2021/11/26 09:33:35;;;;;;;23.30;10.83;;;6.00;99.90;;;;;;5103014;28;20475;-82
2021/11/26 09:36:03;;;;;;;18.57;11.03;;;5.90;99.90;;;;;;5094386;28;20536;-83
2021/11/26 09:38:30;;;;;;;21.90;10.50;;;6.00;99.90;;;;;;5104584;28;20449;-81
2021/11/26 09:40:57;;;;;;;25.23;12.70;;;6.10;99.90;;;;;;5103174;28;20483;-83
2021/11/26 09:43:26;;;;;;;22.53;12.00;;;6.10;99.90;;;;;;5103465;28;20477;-82
2021/11/26 09:45:53;;;;;;;22.83;11.43;;;6.10;99.90;;;;;;5102552;28;20463;-81
2021/11/26 09:48:21;;;;;;;20.17;11.10;;;6.00;99.90;;;;;;5103725;28;20487;-81
2021/11/26 09:50:48;;;;;;;18.33;10.93;;;6.10;99.90;;;;;;5100722;28;20530;-81
2021/11/26 09:53:18;;;;;;;18.10;11.00;;;6.10;99.90;;;;;;5098694;28;20453;-80
2021/11/26 09:55:48;;;;;;;22.43;11.03;;;6.10;99.90;;;;;;5097390;28;20461;-82
2021/11/26 09:58:16;;;;;;;14.17;9.40;;;6.20;99.90;;;;;;5096887;28;20718;-81
2021/11/26 10:00:45;;;;;;;19.40;9.37;;;6.30;99.90;;;;;;5096233;28;20449;-81
2021/11/26 10:03:12;;;;;;;15.60;9.23;;;6.10;99.90;;;;;;5097513;28;21097;-82
2021/11/26 10:05:41;;;;;;;13.30;8.10;;;6.10;99.90;;;;;;5097749;28;20444;-81
2021/11/26 10:08:08;;;;;;;18.90;9.20;;;6.10;99.90;;;;;;5097613;28;20448;-83
2021/11/26 10:10:40;;;;;;;18.33;8.87;;;6.20;99.90;;;;;;5086113;28;20990;-82
2021/11/26 10:13:09;;;;;;;17.00;8.60;;;6.30;99.90;;;;;;5093642;28;20465;-82
2021/11/26 10:15:40;;;;;;;14.67;7.90;;;6.40;99.90;;;;;;5095961;28;20515;-84
2021/11/26 10:18:13;;;;;;;16.63;7.40;;;6.40;99.90;;;;;;5098653;28;20464;-83
2021/11/26 10:20:54;;;;;;;18.03;7.80;;;6.40;99.90;;;;;;5082173;28;20454;-82
2021/11/26 10:23:22;;;;;;;12.60;7.53;;;6.30;99.90;;;;;;5095816;28;20567;-83
2021/11/26 10:25:49;;;;;;;15.47;6.90;;;6.40;99.90;;;;;;5100380;28;20521;-83
2021/11/26 10:28:16;;;;;;;15.47;7.10;;;6.30;99.90;;;;;;5097049;28;20894;-83
2021/11/26 10:30:45;;;;;;;13.60;7.20;;;6.20;99.90;;;;;;5099995;28;20441;-83
2021/11/26 10:33:16;;;;;;;17.40;7.20;;;6.20;99.90;;;;;;5074854;28;20451;-83
2021/11/26 10:35:47;;;;;;;16.70;7.00;;;6.30;99.90;;;;;;5095820;28;20460;-83
2021/11/26 10:38:16;;;;;;;15.57;7.30;;;6.40;99.90;;;;;;5101702;28;20452;-83
2021/11/26 10:40:46;;;;;;;11.47;6.57;;;6.50;99.90;;;;;;5098888;28;20468;-83
2021/11/26 10:43:14;;;;;;;11.43;6.00;;;6.40;99.90;;;;;;5111172;28;20450;-83
2021/11/26 10:45:59;;;;;;;14.00;6.43;;;6.40;99.90;;;;;;5114832;28;20459;-84
2021/11/26 10:51:34;;;;;;;12.30;6.30;;;6.30;99.90;;;;;;5092106;28;20461;-84
2021/11/26 10:57:21;;;;;;;16.70;6.47;;;6.50;99.90;;;;;;5096161;28;20459;-84
2021/11/26 10:59:52;;;;;;;13.33;6.30;;;6.40;99.90;;;;;;5101925;28;20453;-83
2021/11/26 11:02:27;;;;;;;15.03;7.70;;;6.30;99.90;;;;;;5100531;28;20478;-84
2021/11/26 11:04:54;;;;;;;10.90;6.50;;;6.30;99.90;;;;;;5099192;28;20506;-82
2021/11/26 11:07:23;;;;;;;13.50;7.40;;;6.30;99.90;;;;;;5101470;28;20595;-82
2021/11/26 11:09:53;;;;;;;15.80;7.23;;;6.20;99.90;;;;;;5087574;28;20451;-83
2021/11/26 11:12:29;;;;;;;14.10;7.00;;;6.30;99.90;;;;;;5098207;28;20567;-84
2021/11/26 11:14:58;;;;;;;17.90;7.43;;;6.40;99.90;;;;;;5096121;28;20455;-84
2021/11/26 11:17:28;;;;;;;10.80;8.03;;;6.30;99.90;;;;;;5103451;28;20468;-82
2021/11/26 11:19:57;;;;;;;19.93;7.33;;;6.20;99.90;;;;;;5102669;28;20470;-83
2021/11/26 11:22:28;;;;;;;11.50;6.40;;;6.10;99.90;;;;;;5102292;28;20475;-83
2021/11/26 11:24:55;;;;;;;10.63;5.63;;;6.20;99.90;;;;;;5108193;28;20547;-83
2021/11/26 11:27:22;;;;;;;12.03;6.70;;;8.60;99.90;;;;;;5107898;28;20477;-83
2021/11/26 11:29:49;;;;;;;12.47;6.90;;;8.70;99.90;;;;;;5107515;28;20540;-82
2021/11/26 11:32:16;;;;;;;12.10;6.70;;;9.00;99.90;;;;;;5105978;28;20532;-83
2021/11/26 11:34:45;;;;;;;10.70;5.93;;;8.90;99.90;;;;;;5106936;28;20442;-78
2021/11/26 11:37:18;;;;;;;11.40;5.90;;;8.00;99.90;;;;;;5105202;28;20445;-85
2021/11/26 11:39:50;;;;;;;10.80;6.33;;;8.00;99.90;;;;;;5091922;28;20473;-82
2021/11/26 11:42:26;;;;;;;16.50;8.03;;;7.40;99.90;;;;;;5088260;28;20562;-81
2021/11/26 11:44:58;;;;;;;15.60;6.50;;;7.00;99.90;;;;;;5082831;28;20489;-81
2021/11/26 11:47:26;;;;;;;14.20;6.40;;;6.90;99.90;;;;;;5097014;28;20453;-82
2021/11/26 11:50:05;;;;;;;13.27;6.93;;;6.90;99.90;;;;;;5096799;28;20988;-81
2021/11/26 11:52:40;;;;;;;14.20;5.87;;;6.90;99.90;;;;;;5097112;28;20495;-82
2021/11/26 11:55:23;;;;;;;10.13;5.63;;;6.70;99.90;;;;;;5088895;28;20444;-81
2021/11/26 11:57:52;;;;;;;9.43;4.60;;;6.80;99.90;;;;;;5096048;28;20449;-82
2021/11/26 12:00:21;;;;;;;9.60;4.87;;;6.90;99.90;;;;;;5097070;28;20453;-82
2021/11/26 12:02:50;;;;;;;9.00;5.30;;;7.10;99.90;;;;;;5096473;28;20477;-81
2021/11/26 12:05:23;;;;;;;10.93;5.93;;;7.30;99.90;;;;;;5097409;28;20482;-82
2021/11/26 12:07:50;;;;;;;13.80;5.50;;;7.10;99.90;;;;;;5107378;28;20484;-82
2021/11/26 12:10:20;;;;;;;13.97;6.50;;;7.20;99.90;;;;;;5113712;28;20454;-82
2021/11/26 12:12:48;;;;;;;16.43;5.90;;;7.00;99.90;;;;;;5094043;28;20467;-82
2021/11/26 12:15:28;;;;;;;11.77;5.57;;;7.10;99.90;;;;;;5096184;28;20498;-81
2021/11/26 12:17:59;;;;;;;11.77;5.23;;;7.10;99.90;;;;;;5094826;28;20486;-81
2021/11/26 12:20:27;;;;;;;13.27;6.03;;;7.10;99.90;;;;;;5095001;28;20837;-83
2021/11/26 12:22:58;;;;;;;12.83;5.50;;;7.20;99.90;;;;;;5094381;28;20464;-82
2021/11/26 12:25:36;;;;;;;15.30;5.97;;;7.30;99.90;;;;;;5095955;28;20484;-82
2021/11/26 12:28:07;;;;;;;10.43;4.83;;;7.40;99.90;;;;;;5094521;28;20457;-82
2021/11/26 12:30:35;;;;;;;14.63;5.47;;;7.70;99.90;;;;;;5080230;28;20445;-82
2021/11/26 12:33:17;;;;;;;11.40;4.77;;;8.00;99.90;;;;;;5091717;28;20464;-83
2021/11/26 12:35:55;;;;;;;8.60;4.60;;;8.10;99.90;;;;;;5095201;28;20827;-83
2021/11/26 12:38:22;;;;;;;9.20;4.63;;;8.00;99.90;;;;;;5093263;28;20467;-83
2021/11/26 12:40:51;;;;;;;8.03;3.83;;;8.00;99.90;;;;;;5094606;28;21092;-83
2021/11/26 12:43:17;;;;;;;9.50;4.60;;;8.00;99.90;;;;;;5093724;28;20450;-83
2021/11/26 12:45:44;;;;;;;15.13;3.80;;;8.10;99.90;;;;;;5076356;28;21036;-82
2021/11/26 12:48:22;;;;;;;14.30;3.73;;;8.10;99.90;;;;;;5087044;28;21173;-82